sensor_id;sensor_type;location;lat;lon;timestamp;P1;durP1;ratioP1;P2;durP2;ratioP2
41687;SDS011;27371;42.686;23.362;2023-01-15T00:02:03;22.08;;;14.38;;
41687;SDS011;27371;42.686;23.362;2023-01-15T00:04:29;21.92;;;14.93;;
41687;SDS011;27371;42.686;23.362;2023-01-15T00:06:54;21.70;;;14.23;;
41687;SDS011;27371;42.686;23.362;2023-01-15T00:09:20;23.70;;;14.85;;
41687;SDS011;27371;42.686;23.362;2023-01-15T00:11:45;21.80;;;14.60;;
41687;SDS011;27371;42.686;23.362;2023-01-15T00:14:11;22.38;;;14.82;;
41687;SDS011;27371;42.686;23.362;2023-01-15T00:16:36;21.50;;;14.57;;
41687;SDS011;27371;42.686;23.362;2023-01-15T00:19:04;22.70;;;14.82;;
41687;SDS011;27371;42.686;23.362;2023-01-15T00:21:32;21.50;;;14.27;;
41687;SDS011;27371;42.686;23.362;2023-01-15T00:23:58;21.65;;;12.40;;
41687;SDS011;27371;42.686;23.362;2023-01-15T00:26:43;21.73;;;14.00;;
41687;SDS011;27371;42.686;23.362;2023-01-15T00:29:27;22.75;;;14.00;;
41687;SDS011;27371;42.686;23.362;2023-01-15T00:31:57;18.42;;;13.18;;
41687;SDS011;27371;42.686;23.362;2023-01-15T00:34:24;22.02;;;13.68;;
41687;SDS011;27371;42.686;23.362;2023-01-15T00:36:54;21.10;;;14.32;;
41687;SDS011;27371;42.686;23.362;2023-01-15T00:39:19;22.45;;;13.88;;
41687;SDS011;27371;42.686;23.362;2023-01-15T00:41:45;22.75;;;13.82;;
41687;SDS011;27371;42.686;23.362;2023-01-15T00:44:11;19.23;;;14.23;;
41687;SDS011;27371;42.686;23.362;2023-01-15T00:46:37;22.13;;;14.57;;
41687;SDS011;27371;42.686;23.362;2023-01-15T00:49:03;20.52;;;14.23;;
41687;SDS011;27371;42.686;23.362;2023-01-15T00:51:29;22.88;;;13.60;;
41687;SDS011;27371;42.686;23.362;2023-01-15T00:53:56;18.45;;;13.55;;
41687;SDS011;27371;42.686;23.362;2023-01-15T00:56:21;20.55;;;13.50;;
41687;SDS011;27371;42.686;23.362;2023-01-15T00:58:47;24.40;;;14.73;;
41687;SDS011;27371;42.686;23.362;2023-01-15T01:03:47;22.48;;;14.77;;
41687;SDS011;27371;42.686;23.362;2023-01-15T01:06:16;18.70;;;13.02;;
41687;SDS011;27371;42.686;23.362;2023-01-15T01:08:42;18.02;;;12.52;;
41687;SDS011;27371;42.686;23.362;2023-01-15T01:11:10;19.95;;;12.80;;
41687;SDS011;27371;42.686;23.362;2023-01-15T01:13:38;18.20;;;12.25;;
41687;SDS011;27371;42.686;23.362;2023-01-15T01:16:04;20.88;;;13.60;;
41687;SDS011;27371;42.686;23.362;2023-01-15T01:18:45;20.25;;;14.02;;
41687;SDS011;27371;42.686;23.362;2023-01-15T01:21:11;19.77;;;13.25;;
41687;SDS011;27371;42.686;23.362;2023-01-15T01:23:36;20.17;;;13.25;;
41687;SDS011;27371;42.686;23.362;2023-01-15T01:26:01;18.90;;;12.63;;
41687;SDS011;27371;42.686;23.362;2023-01-15T01:28:27;20.58;;;12.95;;
41687;SDS011;27371;42.686;23.362;2023-01-15T01:30:52;18.23;;;12.73;;
41687;SDS011;27371;42.686;23.362;2023-01-15T01:33:18;19.88;;;13.32;;
41687;SDS011;27371;42.686;23.362;2023-01-15T01:35:47;21.77;;;13.52;;
41687;SDS011;27371;42.686;23.362;2023-01-15T01:38:13;19.90;;;13.32;;
41687;SDS011;27371;42.686;23.362;2023-01-15T01:40:39;20.48;;;13.25;;
41687;SDS011;27371;42.686;23.362;2023-01-15T01:43:09;17.20;;;12.43;;
41687;SDS011;27371;42.686;23.362;2023-01-15T01:45:46;20.13;;;12.57;;
41687;SDS011;27371;42.686;23.362;2023-01-15T01:48:11;17.20;;;11.55;;
41687;SDS011;27371;42.686;23.362;2023-01-15T01:50:39;19.65;;;13.27;;
41687;SDS011;27371;42.686;23.362;2023-01-15T01:53:07;19.95;;;12.05;;
41687;SDS011;27371;42.686;23.362;2023-01-15T01:55:39;18.23;;;12.52;;
41687;SDS011;27371;42.686;23.362;2023-01-15T01:58:05;18.15;;;12.05;;
41687;SDS011;27371;42.686;23.362;2023-01-15T02:00:34;16.80;;;11.90;;
41687;SDS011;27371;42.686;23.362;2023-01-15T02:03:04;18.08;;;11.98;;
41687;SDS011;27371;42.686;23.362;2023-01-15T02:05:36;15.85;;;11.55;;
41687;SDS011;27371;42.686;23.362;2023-01-15T02:08:04;19.67;;;12.40;;
41687;SDS011;27371;42.686;23.362;2023-01-15T02:10:31;18.33;;;11.68;;
41687;SDS011;27371;42.686;23.362;2023-01-15T02:13:07;17.67;;;11.98;;
41687;SDS011;27371;42.686;23.362;2023-01-15T02:15:39;16.38;;;10.63;;
41687;SDS011;27371;42.686;23.362;2023-01-15T02:21:07;17.77;;;11.23;;
41687;SDS011;27371;42.686;23.362;2023-01-15T02:24:05;16.48;;;10.25;;
41687;SDS011;27371;42.686;23.362;2023-01-15T02:26:56;16.42;;;10.18;;
41687;SDS011;27371;42.686;23.362;2023-01-15T02:29:38;17.25;;;10.25;;
41687;SDS011;27371;42.686;23.362;2023-01-15T02:35:08;14.20;;;9.80;;
41687;SDS011;27371;42.686;23.362;2023-01-15T02:37:42;14.50;;;9.93;;
41687;SDS011;27371;42.686;23.362;2023-01-15T02:40:13;14.43;;;9.80;;
41687;SDS011;27371;42.686;23.362;2023-01-15T02:42:39;14.32;;;10.10;;
41687;SDS011;27371;42.686;23.362;2023-01-15T02:45:08;16.48;;;9.32;;
41687;SDS011;27371;42.686;23.362;2023-01-15T02:47:37;12.73;;;8.48;;
41687;SDS011;27371;42.686;23.362;2023-01-15T02:50:08;14.77;;;9.60;;
41687;SDS011;27371;42.686;23.362;2023-01-15T02:52:43;13.95;;;9.85;;
41687;SDS011;27371;42.686;23.362;2023-01-15T02:55:13;15.73;;;9.80;;
41687;SDS011;27371;42.686;23.362;2023-01-15T02:57:43;14.82;;;9.65;;
41687;SDS011;27371;42.686;23.362;2023-01-15T03:00:11;13.82;;;9.65;;
41687;SDS011;27371;42.686;23.362;2023-01-15T03:02:42;12.23;;;8.95;;
41687;SDS011;27371;42.686;23.362;2023-01-15T03:07:52;14.43;;;8.77;;
41687;SDS011;27371;42.686;23.362;2023-01-15T03:10:29;11.23;;;8.02;;
41687;SDS011;27371;42.686;23.362;2023-01-15T03:12:58;15.20;;;8.38;;
41687;SDS011;27371;42.686;23.362;2023-01-15T03:18:30;12.65;;;8.50;;
41687;SDS011;27371;42.686;23.362;2023-01-15T03:21:03;13.07;;;8.60;;
41687;SDS011;27371;42.686;23.362;2023-01-15T03:23:34;12.25;;;8.43;;
41687;SDS011;27371;42.686;23.362;2023-01-15T03:26:02;12.02;;;8.30;;
41687;SDS011;27371;42.686;23.362;2023-01-15T03:28:28;10.98;;;8.20;;
41687;SDS011;27371;42.686;23.362;2023-01-15T03:30:58;14.90;;;9.32;;
41687;SDS011;27371;42.686;23.362;2023-01-15T03:33:23;11.73;;;8.32;;
41687;SDS011;27371;42.686;23.362;2023-01-15T03:35:59;14.30;;;9.48;;
41687;SDS011;27371;42.686;23.362;2023-01-15T03:38:28;17.60;;;10.00;;
41687;SDS011;27371;42.686;23.362;2023-01-15T03:41:00;13.88;;;9.75;;
41687;SDS011;27371;42.686;23.362;2023-01-15T03:43:54;15.73;;;11.35;;
41687;SDS011;27371;42.686;23.362;2023-01-15T03:52:09;16.52;;;10.70;;
41687;SDS011;27371;42.686;23.362;2023-01-15T03:54:52;15.23;;;9.82;;
41687;SDS011;27371;42.686;23.362;2023-01-15T03:57:28;13.77;;;9.82;;
41687;SDS011;27371;42.686;23.362;2023-01-15T04:00:12;17.15;;;10.98;;
41687;SDS011;27371;42.686;23.362;2023-01-15T04:02:43;16.65;;;10.57;;
41687;SDS011;27371;42.686;23.362;2023-01-15T04:05:11;16.75;;;10.73;;
41687;SDS011;27371;42.686;23.362;2023-01-15T04:07:37;17.67;;;11.05;;
41687;SDS011;27371;42.686;23.362;2023-01-15T04:10:06;16.10;;;10.57;;
41687;SDS011;27371;42.686;23.362;2023-01-15T04:12:33;16.63;;;9.88;;
41687;SDS011;27371;42.686;23.362;2023-01-15T04:14:58;16.63;;;9.85;;
41687;SDS011;27371;42.686;23.362;2023-01-15T04:17:24;14.82;;;9.93;;
41687;SDS011;27371;42.686;23.362;2023-01-15T04:19:49;16.13;;;10.98;;
41687;SDS011;27371;42.686;23.362;2023-01-15T04:22:15;16.00;;;10.90;;
41687;SDS011;27371;42.686;23.362;2023-01-15T04:24:41;15.85;;;10.98;;
41687;SDS011;27371;42.686;23.362;2023-01-15T04:27:06;20.88;;;11.55;;
41687;SDS011;27371;42.686;23.362;2023-01-15T04:29:35;14.13;;;10.13;;
41687;SDS011;27371;42.686;23.362;2023-01-15T04:32:00;16.70;;;11.35;;
41687;SDS011;27371;42.686;23.362;2023-01-15T04:34:26;15.43;;;9.90;;
41687;SDS011;27371;42.686;23.362;2023-01-15T04:36:54;16.05;;;9.75;;
41687;SDS011;27371;42.686;23.362;2023-01-15T04:39:20;15.65;;;10.30;;
41687;SDS011;27371;42.686;23.362;2023-01-15T04:41:46;15.65;;;10.45;;
41687;SDS011;27371;42.686;23.362;2023-01-15T04:44:31;13.60;;;9.70;;
41687;SDS011;27371;42.686;23.362;2023-01-15T04:46:57;15.07;;;9.15;;
41687;SDS011;27371;42.686;23.362;2023-01-15T04:49:24;15.85;;;10.25;;
41687;SDS011;27371;42.686;23.362;2023-01-15T04:51:50;15.48;;;9.00;;
41687;SDS011;27371;42.686;23.362;2023-01-15T04:54:16;16.45;;;10.40;;
41687;SDS011;27371;42.686;23.362;2023-01-15T04:56:43;19.13;;;9.32;;
41687;SDS011;27371;42.686;23.362;2023-01-15T04:59:11;14.75;;;9.75;;
41687;SDS011;27371;42.686;23.362;2023-01-15T05:01:37;15.13;;;9.55;;
41687;SDS011;27371;42.686;23.362;2023-01-15T05:04:02;16.80;;;10.32;;
41687;SDS011;27371;42.686;23.362;2023-01-15T05:06:28;15.48;;;10.55;;
41687;SDS011;27371;42.686;23.362;2023-01-15T05:08:55;14.05;;;9.43;;
41687;SDS011;27371;42.686;23.362;2023-01-15T05:11:21;13.95;;;9.30;;
41687;SDS011;27371;42.686;23.362;2023-01-15T05:13:47;15.80;;;10.82;;
41687;SDS011;27371;42.686;23.362;2023-01-15T05:16:13;16.52;;;10.02;;
41687;SDS011;27371;42.686;23.362;2023-01-15T05:18:42;14.38;;;9.68;;
41687;SDS011;27371;42.686;23.362;2023-01-15T05:21:21;15.90;;;9.48;;
41687;SDS011;27371;42.686;23.362;2023-01-15T05:23:50;17.13;;;9.95;;
41687;SDS011;27371;42.686;23.362;2023-01-15T05:26:17;15.30;;;9.50;;
41687;SDS011;27371;42.686;23.362;2023-01-15T05:28:43;14.32;;;9.90;;
41687;SDS011;27371;42.686;23.362;2023-01-15T05:31:13;18.15;;;10.73;;
41687;SDS011;27371;42.686;23.362;2023-01-15T05:33:40;14.05;;;9.27;;
41687;SDS011;27371;42.686;23.362;2023-01-15T05:36:08;16.50;;;9.88;;
41687;SDS011;27371;42.686;23.362;2023-01-15T05:38:35;15.43;;;9.93;;
41687;SDS011;27371;42.686;23.362;2023-01-15T05:41:05;15.35;;;10.20;;
41687;SDS011;27371;42.686;23.362;2023-01-15T05:43:52;15.15;;;9.65;;
41687;SDS011;27371;42.686;23.362;2023-01-15T05:46:26;13.45;;;8.98;;
41687;SDS011;27371;42.686;23.362;2023-01-15T05:48:51;15.52;;;9.95;;
41687;SDS011;27371;42.686;23.362;2023-01-15T05:51:17;14.18;;;9.45;;
41687;SDS011;27371;42.686;23.362;2023-01-15T05:53:45;13.60;;;8.68;;
41687;SDS011;27371;42.686;23.362;2023-01-15T05:56:11;12.07;;;7.65;;
41687;SDS011;27371;42.686;23.362;2023-01-15T06:01:34;11.50;;;7.37;;
41687;SDS011;27371;42.686;23.362;2023-01-15T06:04:01;9.52;;;6.90;;
41687;SDS011;27371;42.686;23.362;2023-01-15T06:06:27;10.18;;;7.07;;
41687;SDS011;27371;42.686;23.362;2023-01-15T06:08:53;10.95;;;7.35;;
41687;SDS011;27371;42.686;23.362;2023-01-15T06:11:19;8.70;;;6.45;;
41687;SDS011;27371;42.686;23.362;2023-01-15T06:13:45;10.40;;;7.22;;
41687;SDS011;27371;42.686;23.362;2023-01-15T06:16:11;12.60;;;7.53;;
41687;SDS011;27371;42.686;23.362;2023-01-15T06:18:37;11.75;;;7.47;;
41687;SDS011;27371;42.686;23.362;2023-01-15T06:21:13;10.48;;;7.25;;
41687;SDS011;27371;42.686;23.362;2023-01-15T06:26:12;9.70;;;6.85;;
41687;SDS011;27371;42.686;23.362;2023-01-15T06:28:39;9.88;;;7.15;;
41687;SDS011;27371;42.686;23.362;2023-01-15T06:31:05;13.27;;;7.47;;
41687;SDS011;27371;42.686;23.362;2023-01-15T06:33:32;14.45;;;7.95;;
41687;SDS011;27371;42.686;23.362;2023-01-15T06:36:01;13.35;;;7.75;;
41687;SDS011;27371;42.686;23.362;2023-01-15T06:38:35;12.20;;;7.53;;
41687;SDS011;27371;42.686;23.362;2023-01-15T06:41:02;12.13;;;8.18;;
41687;SDS011;27371;42.686;23.362;2023-01-15T06:43:28;11.38;;;7.28;;
41687;SDS011;27371;42.686;23.362;2023-01-15T06:46:12;11.82;;;7.50;;
41687;SDS011;27371;42.686;23.362;2023-01-15T06:48:57;11.00;;;7.95;;
41687;SDS011;27371;42.686;23.362;2023-01-15T06:51:23;13.15;;;8.05;;
41687;SDS011;27371;42.686;23.362;2023-01-15T06:53:49;25.85;;;15.65;;
41687;SDS011;27371;42.686;23.362;2023-01-15T06:56:14;24.38;;;15.30;;
41687;SDS011;27371;42.686;23.362;2023-01-15T06:58:40;24.70;;;15.65;;
41687;SDS011;27371;42.686;23.362;2023-01-15T07:01:10;25.95;;;15.73;;
41687;SDS011;27371;42.686;23.362;2023-01-15T07:03:37;35.30;;;23.30;;
41687;SDS011;27371;42.686;23.362;2023-01-15T07:06:10;39.67;;;24.05;;
41687;SDS011;27371;42.686;23.362;2023-01-15T07:08:37;31.98;;;19.88;;
41687;SDS011;27371;42.686;23.362;2023-01-15T07:11:04;28.98;;;19.58;;
41687;SDS011;27371;42.686;23.362;2023-01-15T07:13:31;32.60;;;19.75;;
41687;SDS011;27371;42.686;23.362;2023-01-15T07:15:58;31.42;;;19.83;;
41687;SDS011;27371;42.686;23.362;2023-01-15T07:18:27;28.70;;;18.85;;
41687;SDS011;27371;42.686;23.362;2023-01-15T07:20:55;31.98;;;19.15;;
41687;SDS011;27371;42.686;23.362;2023-01-15T07:23:21;31.35;;;20.67;;
41687;SDS011;27371;42.686;23.362;2023-01-15T07:25:49;32.67;;;21.30;;
41687;SDS011;27371;42.686;23.362;2023-01-15T07:28:16;35.28;;;21.55;;
41687;SDS011;27371;42.686;23.362;2023-01-15T07:30:41;32.85;;;22.27;;
41687;SDS011;27371;42.686;23.362;2023-01-15T07:33:07;35.47;;;20.48;;
41687;SDS011;27371;42.686;23.362;2023-01-15T07:35:32;33.05;;;20.33;;
41687;SDS011;27371;42.686;23.362;2023-01-15T07:38:00;27.10;;;19.15;;
41687;SDS011;27371;42.686;23.362;2023-01-15T07:40:26;28.00;;;17.83;;
41687;SDS011;27371;42.686;23.362;2023-01-15T07:42:52;28.92;;;18.63;;
41687;SDS011;27371;42.686;23.362;2023-01-15T07:45:37;25.58;;;15.90;;
41687;SDS011;27371;42.686;23.362;2023-01-15T07:48:22;27.38;;;16.45;;
41687;SDS011;27371;42.686;23.362;2023-01-15T07:51:06;25.73;;;15.73;;
41687;SDS011;27371;42.686;23.362;2023-01-15T07:53:31;23.95;;;14.73;;
41687;SDS011;27371;42.686;23.362;2023-01-15T07:55:57;21.67;;;13.10;;
41687;SDS011;27371;42.686;23.362;2023-01-15T07:58:22;22.73;;;14.02;;
41687;SDS011;27371;42.686;23.362;2023-01-15T08:00:51;28.80;;;16.38;;
41687;SDS011;27371;42.686;23.362;2023-01-15T08:03:16;22.88;;;15.43;;
41687;SDS011;27371;42.686;23.362;2023-01-15T08:05:42;23.67;;;15.25;;
41687;SDS011;27371;42.686;23.362;2023-01-15T08:08:13;25.25;;;15.30;;
41687;SDS011;27371;42.686;23.362;2023-01-15T08:10:42;23.27;;;14.85;;
41687;SDS011;27371;42.686;23.362;2023-01-15T08:13:26;23.83;;;14.27;;
41687;SDS011;27371;42.686;23.362;2023-01-15T08:16:10;24.35;;;15.70;;
41687;SDS011;27371;42.686;23.362;2023-01-15T08:18:36;25.77;;;16.83;;
41687;SDS011;27371;42.686;23.362;2023-01-15T08:21:02;28.88;;;17.30;;
41687;SDS011;27371;42.686;23.362;2023-01-15T08:23:27;32.80;;;18.67;;
41687;SDS011;27371;42.686;23.362;2023-01-15T08:25:53;29.55;;;18.05;;
41687;SDS011;27371;42.686;23.362;2023-01-15T08:28:19;28.35;;;17.67;;
41687;SDS011;27371;42.686;23.362;2023-01-15T08:30:44;28.70;;;19.05;;
41687;SDS011;27371;42.686;23.362;2023-01-15T08:33:10;30.20;;;19.70;;
41687;SDS011;27371;42.686;23.362;2023-01-15T08:35:35;31.00;;;20.48;;
41687;SDS011;27371;42.686;23.362;2023-01-15T08:38:04;28.92;;;19.23;;
41687;SDS011;27371;42.686;23.362;2023-01-15T08:40:31;33.05;;;19.42;;
41687;SDS011;27371;42.686;23.362;2023-01-15T08:42:56;29.30;;;19.65;;
41687;SDS011;27371;42.686;23.362;2023-01-15T08:45:22;26.33;;;17.45;;
41687;SDS011;27371;42.686;23.362;2023-01-15T08:47:48;26.27;;;17.20;;
41687;SDS011;27371;42.686;23.362;2023-01-15T08:50:13;30.45;;;19.77;;
41687;SDS011;27371;42.686;23.362;2023-01-15T08:52:39;29.33;;;19.10;;
41687;SDS011;27371;42.686;23.362;2023-01-15T08:55:04;29.08;;;17.60;;
41687;SDS011;27371;42.686;23.362;2023-01-15T08:57:31;27.15;;;18.10;;
41687;SDS011;27371;42.686;23.362;2023-01-15T08:59:56;29.73;;;18.90;;
41687;SDS011;27371;42.686;23.362;2023-01-15T09:02:22;31.67;;;18.73;;
41687;SDS011;27371;42.686;23.362;2023-01-15T09:04:47;27.45;;;18.25;;
41687;SDS011;27371;42.686;23.362;2023-01-15T09:07:13;24.73;;;15.68;;
41687;SDS011;27371;42.686;23.362;2023-01-15T09:09:38;29.63;;;17.48;;
41687;SDS011;27371;42.686;23.362;2023-01-15T09:12:04;27.58;;;18.10;;
41687;SDS011;27371;42.686;23.362;2023-01-15T09:14:29;30.90;;;17.17;;
41687;SDS011;27371;42.686;23.362;2023-01-15T09:16:55;29.55;;;17.20;;
41687;SDS011;27371;42.686;23.362;2023-01-15T09:19:22;29.63;;;18.50;;
41687;SDS011;27371;42.686;23.362;2023-01-15T09:21:47;29.55;;;16.95;;
41687;SDS011;27371;42.686;23.362;2023-01-15T09:24:13;28.92;;;16.77;;
41687;SDS011;27371;42.686;23.362;2023-01-15T09:26:38;21.35;;;13.25;;
41687;SDS011;27371;42.686;23.362;2023-01-15T09:29:05;21.83;;;13.10;;
41687;SDS011;27371;42.686;23.362;2023-01-15T09:31:33;25.42;;;14.85;;
41687;SDS011;27371;42.686;23.362;2023-01-15T09:33:59;23.55;;;15.15;;
41687;SDS011;27371;42.686;23.362;2023-01-15T09:36:28;22.77;;;15.32;;
41687;SDS011;27371;42.686;23.362;2023-01-15T09:38:55;23.38;;;15.05;;
41687;SDS011;27371;42.686;23.362;2023-01-15T09:41:22;22.20;;;14.45;;
41687;SDS011;27371;42.686;23.362;2023-01-15T09:47:02;25.75;;;14.93;;
41687;SDS011;27371;42.686;23.362;2023-01-15T09:55:33;26.17;;;15.85;;
41687;SDS011;27371;42.686;23.362;2023-01-15T09:58:15;25.17;;;16.52;;
41687;SDS011;27371;42.686;23.362;2023-01-15T10:01:15;21.67;;;16.05;;
41687;SDS011;27371;42.686;23.362;2023-01-15T10:04:36;23.40;;;15.35;;
41687;SDS011;27371;42.686;23.362;2023-01-15T10:10:03;17.15;;;11.25;;
41687;SDS011;27371;42.686;23.362;2023-01-15T10:12:34;22.13;;;13.05;;
41687;SDS011;27371;42.686;23.362;2023-01-15T10:17:49;17.65;;;11.68;;
41687;SDS011;27371;42.686;23.362;2023-01-15T10:23:26;15.93;;;9.70;;
41687;SDS011;27371;42.686;23.362;2023-01-15T10:26:16;15.57;;;9.63;;
41687;SDS011;27371;42.686;23.362;2023-01-15T10:31:30;20.83;;;13.43;;
41687;SDS011;27371;42.686;23.362;2023-01-15T10:34:05;19.45;;;12.55;;
41687;SDS011;27371;42.686;23.362;2023-01-15T10:36:58;23.77;;;14.55;;
41687;SDS011;27371;42.686;23.362;2023-01-15T10:45:39;22.05;;;13.68;;
41687;SDS011;27371;42.686;23.362;2023-01-15T10:48:11;21.35;;;14.23;;
41687;SDS011;27371;42.686;23.362;2023-01-15T10:50:43;26.80;;;15.38;;
41687;SDS011;27371;42.686;23.362;2023-01-15T10:53:15;21.70;;;13.68;;
41687;SDS011;27371;42.686;23.362;2023-01-15T10:55:47;21.17;;;12.82;;
41687;SDS011;27371;42.686;23.362;2023-01-15T10:58:24;18.08;;;12.57;;
41687;SDS011;27371;42.686;23.362;2023-01-15T11:00:56;18.92;;;13.70;;
41687;SDS011;27371;42.686;23.362;2023-01-15T11:03:30;18.02;;;11.90;;
41687;SDS011;27371;42.686;23.362;2023-01-15T11:06:02;15.32;;;11.10;;
41687;SDS011;27371;42.686;23.362;2023-01-15T11:08:29;16.75;;;10.88;;
41687;SDS011;27371;42.686;23.362;2023-01-15T11:10:56;16.25;;;11.25;;
41687;SDS011;27371;42.686;23.362;2023-01-15T11:13:24;14.75;;;9.95;;
41687;SDS011;27371;42.686;23.362;2023-01-15T11:16:15;18.02;;;10.85;;
41687;SDS011;27371;42.686;23.362;2023-01-15T11:19:04;16.25;;;9.73;;
41687;SDS011;27371;42.686;23.362;2023-01-15T11:21:50;12.40;;;9.38;;
41687;SDS011;27371;42.686;23.362;2023-01-15T11:24:17;13.25;;;8.95;;
41687;SDS011;27371;42.686;23.362;2023-01-15T11:26:49;15.85;;;9.70;;
41687;SDS011;27371;42.686;23.362;2023-01-15T11:29:35;15.75;;;11.05;;
41687;SDS011;27371;42.686;23.362;2023-01-15T11:32:02;15.63;;;9.43;;
41687;SDS011;27371;42.686;23.362;2023-01-15T11:34:27;13.52;;;9.27;;
41687;SDS011;27371;42.686;23.362;2023-01-15T11:37:01;16.63;;;8.88;;
41687;SDS011;27371;42.686;23.362;2023-01-15T11:39:28;11.95;;;8.45;;
41687;SDS011;27371;42.686;23.362;2023-01-15T11:42:01;12.43;;;8.63;;
41687;SDS011;27371;42.686;23.362;2023-01-15T11:44:50;12.88;;;7.75;;
41687;SDS011;27371;42.686;23.362;2023-01-15T11:47:37;10.57;;;7.55;;
41687;SDS011;27371;42.686;23.362;2023-01-15T11:50:21;10.02;;;6.82;;
41687;SDS011;27371;42.686;23.362;2023-01-15T11:53:07;11.60;;;8.23;;
41687;SDS011;27371;42.686;23.362;2023-01-15T11:55:49;11.65;;;7.63;;
41687;SDS011;27371;42.686;23.362;2023-01-15T11:58:21;15.15;;;9.13;;
41687;SDS011;27371;42.686;23.362;2023-01-15T12:00:49;11.60;;;7.60;;
41687;SDS011;27371;42.686;23.362;2023-01-15T12:03:23;13.65;;;8.57;;
41687;SDS011;27371;42.686;23.362;2023-01-15T12:06:03;11.20;;;6.75;;
41687;SDS011;27371;42.686;23.362;2023-01-15T12:28:31;8.10;;;5.93;;
41687;SDS011;27371;42.686;23.362;2023-01-15T12:34:13;9.65;;;6.18;;
41687;SDS011;27371;42.686;23.362;2023-01-15T12:36:47;9.73;;;6.40;;
41687;SDS011;27371;42.686;23.362;2023-01-15T12:39:28;9.40;;;6.13;;
41687;SDS011;27371;42.686;23.362;2023-01-15T12:42:02;9.32;;;6.25;;
41687;SDS011;27371;42.686;23.362;2023-01-15T12:44:51;10.10;;;6.18;;
41687;SDS011;27371;42.686;23.362;2023-01-15T12:55:38;11.43;;;6.85;;
41687;SDS011;27371;42.686;23.362;2023-01-15T12:59:10;8.73;;;5.88;;
41687;SDS011;27371;42.686;23.362;2023-01-15T13:01:14;9.02;;;6.53;;
41687;SDS011;27371;42.686;23.362;2023-01-15T13:03:59;9.38;;;7.15;;
41687;SDS011;27371;42.686;23.362;2023-01-15T13:06:49;10.32;;;5.82;;
41687;SDS011;27371;42.686;23.362;2023-01-15T13:09:37;6.88;;;4.93;;
41687;SDS011;27371;42.686;23.362;2023-01-15T13:12:12;7.93;;;6.15;;
41687;SDS011;27371;42.686;23.362;2023-01-15T13:14:39;7.97;;;6.07;;
41687;SDS011;27371;42.686;23.362;2023-01-15T13:19:53;8.88;;;6.88;;
41687;SDS011;27371;42.686;23.362;2023-01-15T13:25:39;9.18;;;6.45;;
41687;SDS011;27371;42.686;23.362;2023-01-15T13:33:58;10.63;;;7.30;;
41687;SDS011;27371;42.686;23.362;2023-01-15T13:36:31;10.05;;;7.85;;
41687;SDS011;27371;42.686;23.362;2023-01-15T13:39:04;10.77;;;7.75;;
41687;SDS011;27371;42.686;23.362;2023-01-15T13:41:37;10.70;;;6.97;;
41687;SDS011;27371;42.686;23.362;2023-01-15T13:44:22;9.98;;;7.35;;
41687;SDS011;27371;42.686;23.362;2023-01-15T13:46:58;9.80;;;7.57;;
41687;SDS011;27371;42.686;23.362;2023-01-15T13:49:31;9.52;;;7.20;;
41687;SDS011;27371;42.686;23.362;2023-01-15T13:52:00;16.95;;;7.78;;
41687;SDS011;27371;42.686;23.362;2023-01-15T13:54:28;10.85;;;7.50;;
41687;SDS011;27371;42.686;23.362;2023-01-15T13:57:18;10.93;;;7.60;;
41687;SDS011;27371;42.686;23.362;2023-01-15T13:59:47;12.15;;;7.57;;
41687;SDS011;27371;42.686;23.362;2023-01-15T14:04:58;16.40;;;9.70;;
41687;SDS011;27371;42.686;23.362;2023-01-15T14:07:36;14.85;;;9.18;;
41687;SDS011;27371;42.686;23.362;2023-01-15T14:18:47;13.07;;;6.82;;
41687;SDS011;27371;42.686;23.362;2023-01-15T14:24:23;10.02;;;7.53;;
41687;SDS011;27371;42.686;23.362;2023-01-15T14:27:06;10.63;;;7.93;;
41687;SDS011;27371;42.686;23.362;2023-01-15T14:32:30;12.40;;;8.40;;
41687;SDS011;27371;42.686;23.362;2023-01-15T14:35:20;11.55;;;7.40;;
41687;SDS011;27371;42.686;23.362;2023-01-15T14:37:55;14.25;;;7.93;;
41687;SDS011;27371;42.686;23.362;2023-01-15T14:40:25;10.05;;;7.10;;
41687;SDS011;27371;42.686;23.362;2023-01-15T14:42:55;12.40;;;8.48;;
41687;SDS011;27371;42.686;23.362;2023-01-15T14:45:33;13.45;;;9.45;;
41687;SDS011;27371;42.686;23.362;2023-01-15T14:48:16;15.15;;;9.73;;
41687;SDS011;27371;42.686;23.362;2023-01-15T14:50:42;15.88;;;9.77;;
41687;SDS011;27371;42.686;23.362;2023-01-15T14:55:41;14.50;;;10.02;;
41687;SDS011;27371;42.686;23.362;2023-01-15T15:03:53;16.75;;;10.80;;
41687;SDS011;27371;42.686;23.362;2023-01-15T15:06:20;15.52;;;10.10;;
41687;SDS011;27371;42.686;23.362;2023-01-15T15:08:47;17.88;;;10.15;;
41687;SDS011;27371;42.686;23.362;2023-01-15T15:11:18;13.85;;;9.85;;
41687;SDS011;27371;42.686;23.362;2023-01-15T15:14:07;16.23;;;10.80;;
41687;SDS011;27371;42.686;23.362;2023-01-15T15:16:39;15.30;;;10.55;;
41687;SDS011;27371;42.686;23.362;2023-01-15T15:19:17;16.02;;;11.20;;
41687;SDS011;27371;42.686;23.362;2023-01-15T15:21:51;17.58;;;11.05;;
41687;SDS011;27371;42.686;23.362;2023-01-15T15:26:51;16.77;;;12.18;;
41687;SDS011;27371;42.686;23.362;2023-01-15T15:29:17;17.30;;;12.38;;
41687;SDS011;27371;42.686;23.362;2023-01-15T15:36:54;19.38;;;13.70;;
41687;SDS011;27371;42.686;23.362;2023-01-15T15:39:33;19.45;;;13.20;;
41687;SDS011;27371;42.686;23.362;2023-01-15T15:42:10;22.25;;;12.98;;
41687;SDS011;27371;42.686;23.362;2023-01-15T15:45:05;19.48;;;13.45;;
41687;SDS011;27371;42.686;23.362;2023-01-15T15:47:58;21.60;;;13.77;;
41687;SDS011;27371;42.686;23.362;2023-01-15T15:50:53;21.27;;;14.70;;
41687;SDS011;27371;42.686;23.362;2023-01-15T15:53:18;20.42;;;14.23;;
41687;SDS011;27371;42.686;23.362;2023-01-15T15:55:44;25.92;;;14.73;;
41687;SDS011;27371;42.686;23.362;2023-01-15T15:58:19;22.10;;;15.55;;
41687;SDS011;27371;42.686;23.362;2023-01-15T16:00:57;22.50;;;15.82;;
41687;SDS011;27371;42.686;23.362;2023-01-15T16:03:24;25.73;;;17.02;;
41687;SDS011;27371;42.686;23.362;2023-01-15T16:05:55;25.70;;;16.48;;
41687;SDS011;27371;42.686;23.362;2023-01-15T16:08:40;27.63;;;17.27;;
41687;SDS011;27371;42.686;23.362;2023-01-15T16:11:30;26.63;;;16.85;;
41687;SDS011;27371;42.686;23.362;2023-01-15T16:17:29;29.63;;;20.25;;
41687;SDS011;27371;42.686;23.362;2023-01-15T16:19:56;31.15;;;20.25;;
41687;SDS011;27371;42.686;23.362;2023-01-15T16:22:22;27.70;;;19.42;;
41687;SDS011;27371;42.686;23.362;2023-01-15T16:24:54;31.13;;;20.98;;
41687;SDS011;27371;42.686;23.362;2023-01-15T16:27:21;29.15;;;19.15;;
41687;SDS011;27371;42.686;23.362;2023-01-15T16:29:51;28.20;;;19.13;;
41687;SDS011;27371;42.686;23.362;2023-01-15T16:32:22;31.05;;;20.30;;
41687;SDS011;27371;42.686;23.362;2023-01-15T16:35:01;41.50;;;21.35;;
41687;SDS011;27371;42.686;23.362;2023-01-15T16:37:30;28.23;;;18.92;;
41687;SDS011;27371;42.686;23.362;2023-01-15T16:39:56;25.60;;;18.05;;
41687;SDS011;27371;42.686;23.362;2023-01-15T16:42:37;27.98;;;18.33;;
41687;SDS011;27371;42.686;23.362;2023-01-15T16:45:16;28.55;;;18.77;;
41687;SDS011;27371;42.686;23.362;2023-01-15T16:48:07;25.58;;;17.77;;
41687;SDS011;27371;42.686;23.362;2023-01-15T16:50:36;27.52;;;19.25;;